Scurry, Texas
Current Conditions -  °F | °C
As of 1:53 AM on Friday 19 Dec 2014 (Local Time) from KTRL Reporting Station
Haze Haze  
Wind Chill: 44°   Ceiling: 600
Heat Index: 48°   Visibility: 5mi
Dew Point: 44°   Wind: 9mph
Humidity: 86%   Direction: 20°NNE
Pressure: 30.16"   Gusts: NA
Location:  32.52°N, 96.38°W
Report Text: KTRL 190753Z AUTO 02008KT 5SM BR OVC006 09/07 A3016 RMK AO2 SLP213 T00890067
Loading
Personal Weather Stations






























Interactive Weather Map New forecast layout! Learn more

10-Day Weather Forecast

Advertisements
Track Severe Weather on mobile